createdAt,value
2023-04-28T00:00:24.163Z,1.08
2023-04-28T00:03:28.610Z,0.46
2023-04-28T00:06:31.720Z,1.06
2023-04-28T00:09:34.825Z,0.83
2023-04-28T00:12:38.660Z,0.28
2023-04-28T00:15:41.990Z,0.24
2023-04-28T00:18:45.228Z,0.66
2023-04-28T00:21:48.388Z,1.11
2023-04-28T00:24:51.362Z,1.17
2023-04-28T00:27:54.763Z,0.94
2023-04-28T00:30:57.953Z,0.64
2023-04-28T00:34:01.738Z,0.69
2023-04-28T00:37:05.109Z,0.50
2023-04-28T00:40:08.688Z,-0.22
2023-04-28T00:43:12.002Z,0.05
2023-04-28T00:46:36.061Z,0.29
2023-04-28T00:49:39.268Z,-0.41
2023-04-28T00:52:43.261Z,0.20
2023-04-28T00:55:48.130Z,0.05
2023-04-28T00:58:51.271Z,0.02
2023-04-28T01:01:54.244Z,0.46
2023-04-28T01:04:58.576Z,-0.17
2023-04-28T01:08:01.908Z,0.19
2023-04-28T01:11:05.264Z,0.22
2023-04-28T01:14:28.140Z,0.40
2023-04-28T01:17:31.309Z,-0.03
2023-04-28T01:20:34.465Z,0.21
2023-04-28T01:23:37.665Z,0.57
2023-04-28T01:26:40.891Z,0.35
2023-04-28T01:29:43.850Z,0.50
2023-04-28T01:32:46.897Z,0.54
2023-04-28T01:35:50.202Z,0.21
2023-04-28T01:38:53.279Z,0.39
2023-04-28T01:41:56.433Z,0.29
2023-04-28T01:45:00.382Z,0.46
2023-04-28T01:48:03.581Z,0.28
2023-04-28T01:51:06.815Z,0.53
2023-04-28T01:54:09.800Z,0.45
2023-04-28T01:57:12.881Z,0.88
2023-04-28T02:00:16.260Z,0.94
2023-04-28T02:03:24.454Z,0.82
2023-04-28T02:06:28.197Z,1.59
2023-04-28T02:09:34.139Z,1.34
2023-04-28T02:12:37.332Z,1.72
2023-04-28T02:15:41.929Z,1.73
2023-04-28T02:18:45.232Z,1.89
2023-04-28T02:21:48.205Z,1.34
2023-04-28T02:24:51.659Z,1.38
2023-04-28T02:27:54.817Z,1.31
2023-04-28T02:31:16.600Z,1.18
2023-04-28T02:34:19.742Z,1.00
2023-04-28T02:37:23.367Z,1.25
2023-04-28T02:40:27.573Z,0.89
2023-04-28T02:43:33.906Z,0.67
2023-04-28T02:46:37.251Z,0.83
2023-04-28T02:49:40.872Z,1.24
2023-04-28T02:52:44.098Z,1.18
2023-04-28T02:55:47.176Z,1.49
2023-04-28T02:58:50.986Z,1.74
2023-04-28T03:01:53.944Z,1.38
2023-04-28T03:04:57.366Z,1.54
2023-04-28T03:08:00.872Z,1.63
2023-04-28T03:11:04.062Z,1.72
2023-04-28T03:14:07.747Z,1.50
2023-04-28T03:17:10.838Z,1.83
2023-04-28T03:20:14.214Z,1.43
2023-04-28T03:23:17.535Z,1.28
2023-04-28T03:26:21.129Z,1.51
2023-04-28T03:29:26.086Z,1.37
2023-04-28T03:32:29.323Z,1.85
2023-04-28T03:35:32.431Z,1.96
2023-04-28T03:38:35.993Z,1.63
2023-04-28T03:41:39.736Z,1.76
2023-04-28T03:45:02.027Z,1.92
2023-04-28T03:48:06.117Z,2.15
2023-04-28T03:51:09.858Z,1.90
2023-04-28T03:54:12.810Z,2.37
2023-04-28T03:57:15.762Z,2.21
2023-04-28T04:00:18.963Z,2.58
2023-04-28T04:03:26.795Z,2.31
2023-04-28T04:06:32.552Z,2.24
2023-04-28T04:09:35.754Z,2.45
2023-04-28T04:12:38.805Z,2.17
2023-04-28T04:15:41.917Z,2.74
2023-04-28T04:18:45.013Z,2.62
2023-04-28T04:21:55.966Z,2.65
2023-04-28T04:24:59.323Z,2.78
2023-04-28T04:28:03.170Z,3.11
2023-04-28T04:31:06.647Z,3.18
2023-04-28T04:34:09.496Z,3.19
2023-04-28T04:37:12.768Z,3.36
2023-04-28T04:40:22.317Z,3.65
2023-04-28T04:43:26.391Z,3.79
2023-04-28T04:46:29.568Z,3.90
2023-04-28T04:49:32.856Z,3.69
2023-04-28T04:52:35.916Z,3.91
2023-04-28T04:55:39.348Z,4.13
2023-04-28T04:58:44.741Z,4.01
2023-04-28T05:02:23.552Z,4.36
2023-04-28T05:05:27.004Z,4.31
2023-04-28T05:08:54.202Z,4.77
2023-04-28T05:11:58.086Z,5.04
2023-04-28T05:15:01.163Z,4.84
2023-04-28T05:18:09.936Z,5.27
2023-04-28T05:21:13.774Z,5.45
2023-04-28T05:24:17.574Z,5.83
2023-04-28T05:27:20.692Z,5.66
2023-04-28T05:30:24.598Z,6.33
2023-04-28T05:33:27.601Z,6.41
2023-04-28T05:36:30.342Z,6.57
2023-04-28T05:39:33.396Z,6.72
2023-04-28T05:42:39.554Z,6.33
2023-04-28T05:45:42.819Z,6.89
2023-04-28T05:48:46.497Z,7.32
2023-04-28T05:51:52.085Z,7.80
2023-04-28T05:54:55.067Z,8.09
2023-04-28T05:57:57.817Z,8.39
2023-04-28T06:01:00.916Z,8.18
2023-04-28T06:04:04.171Z,8.05
2023-04-28T06:07:07.960Z,8.12
2023-04-28T06:10:11.695Z,8.53
2023-04-28T06:13:14.812Z,8.64
2023-04-28T06:16:18.959Z,8.97
2023-04-28T06:19:22.562Z,9.21
2023-04-28T06:22:26.527Z,9.13
2023-04-28T06:25:29.865Z,9.50
2023-04-28T06:28:32.867Z,9.83
2023-04-28T06:31:35.764Z,9.45
2023-04-28T06:34:38.627Z,10.08
2023-04-28T06:37:42.781Z,10.22
2023-04-28T06:40:46.266Z,10.73
2023-04-28T06:43:49.450Z,11.02
2023-04-28T06:46:58.450Z,11.32
2023-04-28T06:50:02.542Z,11.24
2023-04-28T06:53:12.109Z,11.62
2023-04-28T06:56:15.077Z,11.85
2023-04-28T06:59:18.188Z,12.26
2023-04-28T07:02:21.145Z,12.87
2023-04-28T07:05:24.644Z,12.86
2023-04-28T07:08:27.791Z,13.47
2023-04-28T07:11:32.900Z,13.35
2023-04-28T07:14:36.111Z,13.31
2023-04-28T07:17:39.368Z,13.41
2023-04-28T07:20:42.482Z,13.74
2023-04-28T07:23:46.068Z,13.55
2023-04-28T07:26:48.880Z,14.22
2023-04-28T07:29:51.831Z,14.30
2023-04-28T07:32:58.928Z,14.23
2023-04-28T07:36:01.816Z,13.93
2023-04-28T07:39:05.095Z,13.72
2023-04-28T07:42:07.814Z,13.93
2023-04-28T07:45:13.294Z,13.67
2023-04-28T07:48:16.343Z,14.18
2023-04-28T07:51:19.177Z,14.45
2023-04-28T07:54:22.381Z,14.64
2023-04-28T07:57:25.984Z,14.50
2023-04-28T08:00:28.878Z,14.28
2023-04-28T08:03:31.820Z,14.41
2023-04-28T08:06:36.447Z,14.64
2023-04-28T08:09:41.737Z,15.00
2023-04-28T08:12:45.602Z,15.39
2023-04-28T08:15:49.937Z,15.71
2023-04-28T08:18:52.914Z,15.74
2023-04-28T08:21:56.031Z,15.64
2023-04-28T08:24:59.220Z,15.36
2023-04-28T08:28:03.764Z,15.72
2023-04-28T08:31:06.573Z,15.84
2023-04-28T08:34:09.729Z,15.66
2023-04-28T08:37:12.569Z,15.45
2023-04-28T08:40:15.593Z,15.26
2023-04-28T08:43:18.529Z,15.29
2023-04-28T08:46:22.449Z,15.68
2023-04-28T08:49:31.151Z,15.55
2023-04-28T08:52:34.826Z,15.64
2023-04-28T08:55:39.023Z,15.79
2023-04-28T08:58:41.999Z,16.44
2023-04-28T09:01:48.940Z,17.70
2023-04-28T09:04:52.263Z,17.15
2023-04-28T09:07:55.944Z,17.57
2023-04-28T09:11:13.724Z,17.52
2023-04-28T09:14:16.813Z,17.80
2023-04-28T09:17:19.591Z,17.65
2023-04-28T09:20:23.609Z,17.80
2023-04-28T09:23:26.743Z,17.49
2023-04-28T09:26:48.572Z,17.33
2023-04-28T09:29:54.636Z,17.78
2023-04-28T09:33:11.271Z,17.72
2023-04-28T09:36:26.718Z,18.29
2023-04-28T09:39:31.818Z,18.57
2023-04-28T09:42:42.265Z,18.71
2023-04-28T09:45:45.987Z,18.85
2023-04-28T09:48:49.245Z,18.95
2023-04-28T09:51:52.050Z,18.53
2023-04-28T09:54:59.865Z,17.93
2023-04-28T09:58:06.239Z,18.45
2023-04-28T10:01:11.622Z,18.70
2023-04-28T10:04:15.396Z,19.21
2023-04-28T10:07:20.835Z,19.56
2023-04-28T10:10:25.354Z,19.15
2023-04-28T10:13:28.420Z,19.71
2023-04-28T10:16:33.331Z,19.94
2023-04-28T10:19:37.613Z,19.25
2023-04-28T10:22:53.936Z,19.23
2023-04-28T10:26:03.400Z,19.23
2023-04-28T10:29:09.872Z,18.73
2023-04-28T10:32:21.223Z,18.96
2023-04-28T10:35:37.707Z,19.36
2023-04-28T10:39:11.237Z,18.73
2023-04-28T10:42:51.493Z,18.92
2023-04-28T10:45:56.438Z,19.05
2023-04-28T10:49:00.053Z,19.12
2023-04-28T10:52:22.730Z,19.01
2023-04-28T10:55:33.776Z,18.70
2023-04-28T10:58:42.269Z,18.61
2023-04-28T11:01:45.949Z,18.65
2023-04-28T11:05:12.406Z,18.44
2023-04-28T11:08:27.187Z,18.72
2023-04-28T11:11:30.959Z,18.91
2023-04-28T11:14:37.243Z,19.40
2023-04-28T11:17:43.034Z,18.66
2023-04-28T11:20:49.493Z,19.30
2023-04-28T11:23:52.673Z,19.72
2023-04-28T11:26:55.903Z,19.74
2023-04-28T11:29:58.587Z,19.72
2023-04-28T11:33:01.388Z,19.46
2023-04-28T11:36:05.618Z,19.75
2023-04-28T11:39:10.055Z,19.20
2023-04-28T11:42:12.958Z,19.86
2023-04-28T11:45:15.945Z,19.98
2023-04-28T11:48:22.936Z,19.79
2023-04-28T11:51:33.974Z,20.12
2023-04-28T11:54:37.411Z,19.83
2023-04-28T11:57:40.366Z,20.25
2023-04-28T12:00:43.650Z,20.04
2023-04-28T12:03:47.459Z,20.10
2023-04-28T12:06:59.362Z,20.09
2023-04-28T12:10:13.024Z,20.24
2023-04-28T12:13:16.936Z,20.37
2023-04-28T12:16:39.333Z,20.75
2023-04-28T12:19:45.851Z,20.84
2023-04-28T12:22:50.974Z,21.24
2023-04-28T12:25:54.036Z,21.43
2023-04-28T12:28:56.849Z,20.28
2023-04-28T12:31:59.747Z,20.62
2023-04-28T12:35:02.645Z,20.80
2023-04-28T12:38:05.262Z,20.75
2023-04-28T12:41:08.098Z,21.00
2023-04-28T12:44:11.088Z,21.53
2023-04-28T12:47:13.796Z,21.51
2023-04-28T12:50:16.425Z,21.71
2023-04-28T12:53:19.387Z,21.46
2023-04-28T12:56:22.054Z,21.83
2023-04-28T12:59:24.933Z,21.09
2023-04-28T13:02:28.465Z,20.94
2023-04-28T13:05:32.181Z,20.71
2023-04-28T13:08:35.414Z,20.57
2023-04-28T13:11:38.680Z,21.06
2023-04-28T13:14:41.291Z,21.13
2023-04-28T13:17:46.428Z,21.36
2023-04-28T13:20:49.433Z,21.91
2023-04-28T13:23:52.065Z,21.35
2023-04-28T13:26:54.618Z,21.11
2023-04-28T13:29:59.423Z,20.80
2023-04-28T13:33:02.195Z,20.62
2023-04-28T13:36:05.461Z,20.43
2023-04-28T13:39:11.711Z,20.38
2023-04-28T13:42:17.590Z,20.31
2023-04-28T13:45:23.515Z,19.98
2023-04-28T13:48:27.874Z,20.26
2023-04-28T13:51:33.115Z,20.33
2023-04-28T13:54:35.827Z,19.92
2023-04-28T13:57:38.610Z,20.03
2023-04-28T14:00:41.319Z,20.61
2023-04-28T14:03:44.773Z,20.88
2023-04-28T14:06:47.642Z,20.22
2023-04-28T14:09:50.249Z,20.39
2023-04-28T14:12:52.854Z,20.03
2023-04-28T14:15:59.102Z,19.93
2023-04-28T14:19:02.484Z,20.01
2023-04-28T14:22:05.200Z,19.50
2023-04-28T14:25:08.193Z,19.77
2023-04-28T14:28:11.340Z,19.45
2023-04-28T14:31:14.174Z,18.99
2023-04-28T14:34:16.991Z,18.81
2023-04-28T14:37:20.127Z,18.51
2023-04-28T14:40:22.985Z,18.62
2023-04-28T14:43:26.077Z,18.43
2023-04-28T14:46:28.855Z,18.25
2023-04-28T14:49:31.502Z,18.16
2023-04-28T14:52:34.421Z,17.99
2023-04-28T14:55:37.140Z,17.81
2023-04-28T14:58:39.818Z,17.74
2023-04-28T15:01:42.722Z,17.51
2023-04-28T15:04:46.427Z,17.43
2023-04-28T15:07:49.344Z,17.23
2023-04-28T15:10:52.211Z,17.26
2023-04-28T15:13:55.132Z,17.10
2023-04-28T15:16:57.904Z,16.94
2023-04-28T15:20:00.572Z,16.88
2023-04-28T15:23:03.313Z,16.85
2023-04-28T15:26:06.713Z,16.55
2023-04-28T15:29:11.305Z,16.63
2023-04-28T15:32:14.622Z,16.55
2023-04-28T15:35:17.484Z,16.66
2023-04-28T15:38:20.249Z,16.65
2023-04-28T15:41:22.932Z,16.72
2023-04-28T15:44:25.564Z,16.65
2023-04-28T15:47:29.493Z,16.79
2023-04-28T15:50:32.334Z,16.70
2023-04-28T15:53:35.301Z,16.64
2023-04-28T15:56:37.957Z,16.39
2023-04-28T15:59:41.220Z,16.31
2023-04-28T16:02:45.076Z,16.35
2023-04-28T16:05:47.953Z,16.36
2023-04-28T16:08:50.608Z,16.42
2023-04-28T16:11:53.256Z,16.26
2023-04-28T16:14:56.385Z,16.33
2023-04-28T16:17:59.397Z,16.19
2023-04-28T16:21:02.132Z,16.08
2023-04-28T16:24:05.781Z,15.87
2023-04-28T16:27:08.617Z,15.95
2023-04-28T16:30:11.888Z,15.85
2023-04-28T16:33:14.816Z,15.79
2023-04-28T16:36:17.924Z,15.64
2023-04-28T16:39:20.573Z,15.69
2023-04-28T16:42:23.592Z,15.58
2023-04-28T16:45:26.332Z,15.54
2023-04-28T16:48:28.995Z,15.49
2023-04-28T16:51:35.145Z,15.32
2023-04-28T16:54:37.726Z,15.30
2023-04-28T16:57:40.548Z,15.35
2023-04-28T17:00:43.253Z,15.18
2023-04-28T17:03:46.419Z,14.89
2023-04-28T17:06:49.772Z,15.08
2023-04-28T17:09:52.752Z,14.72
2023-04-28T17:12:55.653Z,14.58
2023-04-28T17:15:58.867Z,14.78
2023-04-28T17:19:02.618Z,14.78
2023-04-28T17:22:05.305Z,14.52
2023-04-28T17:25:08.561Z,14.55
2023-04-28T17:28:11.678Z,14.45
2023-04-28T17:31:14.778Z,14.45
2023-04-28T17:34:17.945Z,14.34
2023-04-28T17:37:20.530Z,14.25
2023-04-28T17:40:27.003Z,14.08
2023-04-28T17:43:30.790Z,14.15
2023-04-28T17:46:33.486Z,14.05
2023-04-28T17:49:38.610Z,13.98
2023-04-28T17:52:43.388Z,13.73
2023-04-28T17:55:46.672Z,13.71
2023-04-28T17:58:49.390Z,13.80
2023-04-28T18:01:56.440Z,13.59
2023-04-28T18:04:59.220Z,13.51
2023-04-28T18:08:05.516Z,13.58
2023-04-28T18:11:10.172Z,13.38
2023-04-28T18:14:15.540Z,13.46
2023-04-28T18:17:18.483Z,13.50
2023-04-28T18:20:21.193Z,13.53
2023-04-28T18:23:24.031Z,13.68
2023-04-28T18:26:26.995Z,13.58
2023-04-28T18:29:29.814Z,13.44
2023-04-28T18:32:34.241Z,13.38
2023-04-28T18:35:37.329Z,13.15
2023-04-28T18:38:40.362Z,13.21
2023-04-28T18:41:44.591Z,13.14
2023-04-28T18:44:47.432Z,13.16
2023-04-28T18:47:50.170Z,13.17
2023-04-28T18:50:54.058Z,13.16
2023-04-28T18:53:57.023Z,13.02
2023-04-28T18:57:00.946Z,13.04
2023-04-28T19:00:05.236Z,12.99
2023-04-28T19:03:08.245Z,12.85
2023-04-28T19:06:11.795Z,13.07
2023-04-28T19:09:14.804Z,13.00
2023-04-28T19:12:17.938Z,13.08
2023-04-28T19:15:20.723Z,13.10
2023-04-28T19:18:24.010Z,12.90
2023-04-28T19:21:27.776Z,12.89
2023-04-28T19:24:30.456Z,12.89
2023-04-28T19:27:40.970Z,12.84
2023-04-28T19:30:43.589Z,12.72
2023-04-28T19:33:46.261Z,12.64
2023-04-28T19:36:48.966Z,12.68
2023-04-28T19:39:51.994Z,12.46
2023-04-28T19:42:55.689Z,12.52
2023-04-28T19:45:58.536Z,12.58
2023-04-28T19:49:01.606Z,12.54
2023-04-28T19:52:05.562Z,12.43
2023-04-28T19:55:09.690Z,12.35
2023-04-28T19:58:13.549Z,12.40
2023-04-28T20:01:16.463Z,12.38
2023-04-28T20:04:19.597Z,12.45
2023-04-28T20:07:22.917Z,12.42
2023-04-28T20:10:25.768Z,12.47
2023-04-28T20:13:28.567Z,12.37
2023-04-28T20:16:31.578Z,11.92
2023-04-28T20:19:35.185Z,12.08
2023-04-28T20:22:38.052Z,11.97
2023-04-28T20:25:41.398Z,11.88
2023-04-28T20:28:45.993Z,11.87
2023-04-28T20:31:48.995Z,11.77
2023-04-28T20:34:52.179Z,11.77
2023-04-28T20:37:55.198Z,11.65
2023-04-28T20:40:59.297Z,11.70
2023-04-28T20:44:02.337Z,11.67
2023-04-28T20:47:05.108Z,11.60
2023-04-28T20:50:11.515Z,11.67
2023-04-28T20:53:14.250Z,11.63
2023-04-28T20:56:16.783Z,11.54
2023-04-28T20:59:19.423Z,11.02
2023-04-28T21:02:22.158Z,11.31
2023-04-28T21:05:24.925Z,11.02
2023-04-28T21:08:29.882Z,11.10
2023-04-28T21:11:32.467Z,11.21
2023-04-28T21:14:36.721Z,11.13
2023-04-28T21:17:39.401Z,11.22
2023-04-28T21:20:42.140Z,10.82
2023-04-28T21:23:45.913Z,11.17
2023-04-28T21:26:49.055Z,11.04
2023-04-28T21:29:52.911Z,11.13
2023-04-28T21:32:55.678Z,11.11
2023-04-28T21:35:58.819Z,11.14
2023-04-28T21:39:02.012Z,10.97
2023-04-28T21:42:04.950Z,11.08
2023-04-28T21:45:09.567Z,11.21
2023-04-28T21:48:12.277Z,11.35
2023-04-28T21:51:15.112Z,11.35
2023-04-28T21:54:18.071Z,11.35
2023-04-28T21:57:20.697Z,11.35
2023-04-28T22:00:24.130Z,11.25
2023-04-28T22:03:27.323Z,11.25
2023-04-28T22:06:31.730Z,11.32
2023-04-28T22:09:34.398Z,11.32
2023-04-28T22:12:37.075Z,11.22
2023-04-28T22:15:39.841Z,11.32
2023-04-28T22:18:42.680Z,11.36
2023-04-28T22:21:45.566Z,11.36
2023-04-28T22:24:50.133Z,11.28
2023-04-28T22:27:52.888Z,11.32
2023-04-28T22:30:55.726Z,11.33
2023-04-28T22:33:58.435Z,11.47
2023-04-28T22:37:01.072Z,11.45
2023-04-28T22:40:04.853Z,11.41
2023-04-28T22:43:07.453Z,11.29
2023-04-28T22:46:10.793Z,11.28
2023-04-28T22:49:13.612Z,11.24
2023-04-28T22:52:18.471Z,11.25
2023-04-28T22:55:21.078Z,11.28
2023-04-28T22:58:23.816Z,11.25
2023-04-28T23:01:26.501Z,11.20
2023-04-28T23:04:30.186Z,11.03
2023-04-28T23:07:33.110Z,10.97
2023-04-28T23:10:35.861Z,11.00
2023-04-28T23:13:38.615Z,10.89
2023-04-28T23:16:41.515Z,11.02
2023-04-28T23:19:44.139Z,10.83
2023-04-28T23:22:46.795Z,10.93
2023-04-28T23:25:49.548Z,10.83
2023-04-28T23:28:53.186Z,10.95
2023-04-28T23:31:55.881Z,10.98
2023-04-28T23:34:58.608Z,10.74
2023-04-28T23:38:01.714Z,10.76
2023-04-28T23:41:05.593Z,10.51
2023-04-28T23:44:08.816Z,10.76
2023-04-28T23:47:12.240Z,10.75
2023-04-28T23:50:14.933Z,10.74
2023-04-28T23:53:18.040Z,10.62
2023-04-28T23:56:20.889Z,10.81
2023-04-28T23:59:23.673Z,10.81
